Dudinka, Russia
Current Conditions -  °F | °C
As of 12:00 AM on Sunday 26 Oct 2014 (Local Time) from USNN Reporting Station
Light Snow Light Snow  
Wind Chill: -16°   Ceiling: 4800
Heat Index: -12°   Visibility: 2mi
Dew Point: -15°   Wind: 4mph
Humidity: 79%   Direction: 260°W
Pressure: 29.56"   Gusts: NA
Location:  69.41°N, 86.18°E
Report Text: USNN 251700Z 26002MPS 3300 -SN OVC048 M12/M15 Q1001 NOSIG RMKQFE747 03491240
Loading
Personal Weather Stations






























Interactive Weather Map
Tropical Storm Tracking
New forecast layout! Learn more

10-Day Weather Forecast

Advertisements
Track Severe Weather on mobile